createdAt,value
2019-05-01T00:00:15.260Z,7.1
2019-05-01T00:15:02.829Z,7.2
2019-05-01T00:30:03.147Z,6.9
2019-05-01T00:45:03.346Z,6.9
2019-05-01T01:00:02.652Z,6.9
2019-05-01T01:15:02.969Z,6.8
2019-05-01T01:30:03.455Z,6.8
2019-05-01T01:45:02.655Z,6.6
2019-05-01T02:00:02.978Z,6.4
2019-05-01T02:15:03.192Z,6.1
2019-05-01T02:30:02.594Z,5.9
2019-05-01T02:45:02.973Z,5.5
2019-05-01T03:00:03.186Z,5.4
2019-05-01T03:15:02.500Z,5.3
2019-05-01T03:30:03.143Z,5
2019-05-01T03:45:03.473Z,5
2019-05-01T04:00:02.757Z,4.8
2019-05-01T04:15:03.055Z,4.6
2019-05-01T04:30:02.467Z,4.4
2019-05-01T04:45:02.768Z,4.8
2019-05-01T05:00:03.112Z,5.1
2019-05-01T05:15:03.439Z,5.5
2019-05-01T05:30:02.813Z,6.2
2019-05-01T05:45:03.295Z,6.8
2019-05-01T06:00:02.574Z,7.3
2019-05-01T06:15:06.276Z,7.9
2019-05-01T06:30:02.489Z,8.4
2019-05-01T06:45:03.035Z,8.8
2019-05-01T07:00:07.961Z,9.4
2019-05-01T07:15:02.744Z,10.4
2019-05-01T07:30:03.088Z,11.2
2019-05-01T07:45:03.754Z,12.4
2019-05-01T08:00:05.105Z,13.1
2019-05-01T08:15:03.136Z,14.3
2019-05-01T08:30:02.492Z,15.1
2019-05-01T08:45:04.952Z,15.4
2019-05-01T09:00:02.526Z,16.7
2019-05-01T09:15:07.023Z,15.9
2019-05-01T09:30:04.381Z,17.4
2019-05-01T09:45:03.131Z,16.1
2019-05-01T10:00:03.437Z,17.2
2019-05-01T10:15:02.766Z,18.1
2019-05-01T10:30:03.207Z,19
2019-05-01T10:45:03.469Z,17.4
2019-05-01T11:00:03.616Z,17.2
2019-05-01T11:15:03.059Z,17.6
2019-05-01T11:30:02.499Z,19.1
2019-05-01T11:45:03.055Z,16.9
2019-05-01T12:00:03.374Z,19.1
2019-05-01T12:15:02.657Z,17.6
2019-05-01T12:30:02.988Z,18.3
2019-05-01T12:45:03.387Z,18.6
2019-05-01T13:00:08.634Z,18.4
2019-05-01T13:15:02.574Z,17.5
2019-05-01T13:30:02.978Z,17.6
2019-05-01T13:45:03.294Z,17.6
2019-05-01T14:00:02.585Z,18.7
2019-05-01T14:15:02.917Z,19.3
2019-05-01T14:30:03.242Z,18.2
2019-05-01T14:45:02.537Z,17.6
2019-05-01T15:00:02.989Z,17.1
2019-05-01T15:15:03.303Z,16.8
2019-05-01T15:30:02.544Z,17.4
2019-05-01T15:45:02.905Z,16.7
2019-05-01T16:00:03.172Z,16.5
2019-05-01T16:15:02.465Z,17.2
2019-05-01T16:30:02.896Z,16.3
2019-05-01T16:45:03.220Z,16.2
2019-05-01T17:00:02.627Z,15.9
2019-05-01T17:15:02.898Z,15.9
2019-05-01T17:30:03.370Z,15.6
2019-05-01T17:45:02.571Z,15
2019-05-01T18:00:02.915Z,14.2
2019-05-01T18:15:03.188Z,13.4
2019-05-01T18:30:02.602Z,12.9
2019-05-01T18:45:02.921Z,12.1
2019-05-01T19:00:03.139Z,11.6
2019-05-01T19:15:05.303Z,11.3
2019-05-01T19:30:02.488Z,10.8
2019-05-01T19:45:02.765Z,10.4
2019-05-01T20:00:03.098Z,10.2
2019-05-01T20:15:03.317Z,9.9
2019-05-01T20:30:02.622Z,9.7
2019-05-01T20:45:04.529Z,9.3
2019-05-01T21:00:02.528Z,8.9
2019-05-01T21:15:02.897Z,9
2019-05-01T21:30:03.818Z,8.5
2019-05-01T21:45:04.302Z,8.5
2019-05-01T22:00:02.988Z,8.4
2019-05-01T22:15:06.022Z,8.3
2019-05-01T22:30:05.511Z,8.1
2019-05-01T22:45:02.782Z,7.9
2019-05-01T23:00:03.030Z,7.6
2019-05-01T23:15:03.314Z,7.6
2019-05-01T23:30:02.649Z,7.2
2019-05-01T23:45:03.162Z,7.1
